createdAt,value
2023-04-27T05:03:30.953Z,503.00
2023-04-27T05:04:31.926Z,502.00
2023-04-27T05:05:31.882Z,501.00
2023-04-27T05:06:31.917Z,502.00
2023-04-27T05:07:30.947Z,504.00
2023-04-27T05:08:32.000Z,504.00
2023-04-27T05:09:32.021Z,503.00
2023-04-27T05:10:32.018Z,501.00
2023-04-27T05:11:31.011Z,501.00
2023-04-27T05:12:32.058Z,501.00
2023-04-27T05:13:32.133Z,502.00
2023-04-27T05:14:32.182Z,502.00
2023-04-27T05:15:32.183Z,503.00
2023-04-27T05:16:32.300Z,500.00
2023-04-27T05:17:32.366Z,500.00
2023-04-27T05:18:31.453Z,501.00
2023-04-27T05:19:32.501Z,501.00
2023-04-27T05:20:31.519Z,499.00
2023-04-27T05:21:32.594Z,499.00
2023-04-27T05:22:32.656Z,499.00
2023-04-27T05:23:32.742Z,499.00
2023-04-27T05:24:32.774Z,503.00
2023-04-27T05:25:31.830Z,506.00
2023-04-27T05:26:32.889Z,510.00
2023-04-27T05:27:32.962Z,511.00
2023-04-27T05:28:33.031Z,514.00
2023-04-27T05:29:32.078Z,524.00
2023-04-27T05:30:32.145Z,526.00
2023-04-27T05:31:33.231Z,525.00
2023-04-27T05:32:32.264Z,529.00
2023-04-27T05:33:32.298Z,547.00
2023-04-27T05:34:32.360Z,602.00
2023-04-27T05:35:32.447Z,625.00
2023-04-27T05:36:33.490Z,620.00
2023-04-27T05:37:32.508Z,620.00
2023-04-27T05:38:32.560Z,663.00
2023-04-27T05:39:33.589Z,692.00
2023-04-27T05:40:32.620Z,790.00
2023-04-27T05:41:33.663Z,841.00
2023-04-27T05:42:32.674Z,826.00
2023-04-27T05:43:33.718Z,844.00
2023-04-27T05:44:32.724Z,878.00
2023-04-27T05:45:33.805Z,893.00
2023-04-27T05:46:32.709Z,917.00
2023-04-27T05:47:32.808Z,991.00
2023-04-27T05:48:33.721Z,996.00
2023-04-27T05:49:33.734Z,1004.00
2023-04-27T05:50:32.750Z,764.00
2023-04-27T05:51:32.803Z,630.00
2023-04-27T05:52:34.976Z,622.00
2023-04-27T05:53:33.791Z,565.00
2023-04-27T05:54:33.796Z,560.00
2023-04-27T05:55:32.792Z,546.00
2023-04-27T05:56:32.771Z,553.00
2023-04-27T05:57:32.787Z,558.00
2023-04-27T05:58:33.798Z,572.00
2023-04-27T05:59:32.756Z,672.00
2023-04-27T06:00:33.736Z,615.00
2023-04-27T06:01:33.745Z,598.00
2023-04-27T06:02:32.872Z,588.00
2023-04-27T06:03:34.529Z,582.00
2023-04-27T06:04:33.774Z,573.00
2023-04-27T06:05:33.784Z,561.00
2023-04-27T06:06:32.695Z,554.00
2023-04-27T06:07:32.733Z,545.00
2023-04-27T06:08:32.710Z,536.00
2023-04-27T06:09:33.696Z,529.00
2023-04-27T06:10:33.678Z,527.00
2023-04-27T06:11:33.685Z,522.00
2023-04-27T06:12:33.708Z,518.00
2023-04-27T06:13:33.676Z,520.00
2023-04-27T06:14:32.658Z,523.00
2023-04-27T06:15:32.762Z,535.00
2023-04-27T06:16:33.721Z,548.00
2023-04-27T06:17:33.658Z,570.00
2023-04-27T06:18:32.635Z,574.00
2023-04-27T06:19:33.615Z,578.00
2023-04-27T06:20:33.610Z,582.00
2023-04-27T06:21:33.613Z,583.00
2023-04-27T06:22:33.610Z,586.00
2023-04-27T06:23:32.635Z,590.00
2023-04-27T06:24:32.586Z,595.00
2023-04-27T06:25:33.588Z,598.00
2023-04-27T06:26:32.605Z,602.00
2023-04-27T06:27:32.648Z,606.00
2023-04-27T06:28:32.689Z,607.00
2023-04-27T06:29:33.730Z,608.00
2023-04-27T06:30:32.817Z,611.00
2023-04-27T06:31:33.901Z,612.00
2023-04-27T06:32:33.955Z,611.00
2023-04-27T06:33:34.004Z,613.00
2023-04-27T06:34:34.064Z,616.00
2023-04-27T06:35:34.117Z,619.00
2023-04-27T06:36:33.147Z,621.00
2023-04-27T06:37:34.206Z,623.00
2023-04-27T06:38:34.245Z,625.00
2023-04-27T06:39:34.398Z,628.00
2023-04-27T06:40:34.328Z,632.00
2023-04-27T06:41:34.416Z,634.00
2023-04-27T06:42:34.473Z,637.00
2023-04-27T06:43:33.475Z,638.00
2023-04-27T06:44:34.526Z,639.00
2023-04-27T06:45:34.556Z,642.00
2023-04-27T06:46:34.689Z,644.00
2023-04-27T06:47:33.623Z,648.00
2023-04-27T06:48:34.667Z,653.00
2023-04-27T06:49:34.691Z,658.00
2023-04-27T06:50:33.733Z,662.00
2023-04-27T06:51:33.761Z,666.00
2023-04-27T06:52:34.804Z,671.00
2023-04-27T06:53:35.224Z,675.00
2023-04-27T06:54:33.883Z,676.00
2023-04-27T06:55:34.968Z,736.00
2023-04-27T06:56:35.018Z,721.00
2023-04-27T06:57:34.026Z,723.00
2023-04-27T06:58:35.077Z,799.00
2023-04-27T06:59:34.107Z,825.00
2023-04-27T07:00:34.116Z,906.00
2023-04-27T07:01:35.207Z,927.00
2023-04-27T07:02:34.206Z,939.00
2023-04-27T07:03:35.344Z,1002.00
2023-04-27T07:04:35.151Z,1023.00
2023-04-27T07:05:35.149Z,1037.00
2023-04-27T07:06:35.186Z,1056.00
2023-04-27T07:07:35.240Z,1069.00
2023-04-27T07:08:34.283Z,1093.00
2023-04-27T07:09:34.479Z,1110.00
2023-04-27T07:10:34.593Z,1134.00
2023-04-27T07:11:34.492Z,1143.00
2023-04-27T07:12:35.528Z,1156.00
2023-04-27T07:13:35.592Z,1172.00
2023-04-27T07:14:35.622Z,1194.00
2023-04-27T07:15:34.686Z,1202.00
2023-04-27T07:16:35.829Z,1215.00
2023-04-27T07:17:35.779Z,1224.00
2023-04-27T07:18:35.902Z,1236.00
2023-04-27T07:19:34.842Z,1258.00
2023-04-27T07:20:35.865Z,1272.00
2023-04-27T07:21:35.913Z,1286.00
2023-04-27T07:22:35.951Z,1304.00
2023-04-27T07:23:34.992Z,1320.00
2023-04-27T07:24:36.013Z,1334.00
2023-04-27T07:25:36.034Z,1353.00
2023-04-27T07:26:36.054Z,1380.00
2023-04-27T07:27:35.140Z,1395.00
2023-04-27T07:28:36.093Z,1412.00
2023-04-27T07:29:36.118Z,1439.00
2023-04-27T07:30:35.127Z,1455.00
2023-04-27T07:31:35.221Z,1468.00
2023-04-27T07:32:35.276Z,1488.00
2023-04-27T07:33:35.212Z,1520.00
2023-04-27T07:34:49.098Z,1530.00
2023-04-27T07:35:36.244Z,1550.00
2023-04-27T07:36:35.208Z,1568.00
2023-04-27T07:37:36.200Z,1587.00
2023-04-27T07:38:35.219Z,1610.00
2023-04-27T07:39:36.188Z,1623.00
2023-04-27T07:40:36.209Z,1640.00
2023-04-27T07:41:36.189Z,1663.00
2023-04-27T07:42:36.186Z,1683.00
2023-04-27T07:43:36.209Z,1695.00
2023-04-27T07:44:35.152Z,1772.00
2023-04-27T07:45:35.192Z,1781.00
2023-04-27T07:46:35.143Z,1765.00
2023-04-27T07:47:35.175Z,1754.00
2023-04-27T07:48:36.253Z,1756.00
2023-04-27T07:49:35.126Z,1812.00
2023-04-27T07:50:35.130Z,1809.00
2023-04-27T07:51:36.109Z,1812.00
2023-04-27T07:52:36.113Z,1717.00
2023-04-27T07:53:36.260Z,1886.00
2023-04-27T07:54:35.099Z,1861.00
2023-04-27T07:55:35.103Z,1756.00
2023-04-27T07:56:36.166Z,1864.00
2023-04-27T07:57:35.213Z,1846.00
2023-04-27T07:58:36.288Z,1753.00
2023-04-27T07:59:36.362Z,1191.00
2023-04-27T08:00:35.410Z,1116.00
2023-04-27T08:01:35.440Z,1077.00
2023-04-27T08:02:36.692Z,907.00
2023-04-27T08:03:35.848Z,826.00
2023-04-27T08:04:36.856Z,826.00
2023-04-27T08:05:36.932Z,827.00
2023-04-27T08:06:35.954Z,872.00
2023-04-27T08:07:39.567Z,832.00
2023-04-27T08:08:36.507Z,797.00
2023-04-27T08:09:35.498Z,837.00
2023-04-27T08:10:36.501Z,836.00
2023-04-27T08:11:35.478Z,697.00
2023-04-27T08:12:36.468Z,879.00
2023-04-27T08:13:36.512Z,941.00
2023-04-27T08:14:36.459Z,937.00
2023-04-27T08:15:36.477Z,936.00
2023-04-27T08:16:36.492Z,939.00
2023-04-27T08:17:36.520Z,947.00
2023-04-27T08:18:36.430Z,960.00
2023-04-27T08:19:36.422Z,985.00
2023-04-27T08:20:35.404Z,1045.00
2023-04-27T08:21:36.408Z,1067.00
2023-04-27T08:22:36.401Z,1108.00
2023-04-27T08:23:36.392Z,1135.00
2023-04-27T08:24:36.442Z,1160.00
2023-04-27T08:25:36.424Z,1210.00
2023-04-27T08:26:35.440Z,1233.00
2023-04-27T08:27:36.459Z,1250.00
2023-04-27T08:28:36.467Z,1277.00
2023-04-27T08:29:36.469Z,1326.00
2023-04-27T08:30:36.487Z,1357.00
2023-04-27T08:31:35.685Z,1375.00
2023-04-27T08:32:35.654Z,1405.00
2023-04-27T08:33:36.671Z,1437.00
2023-04-27T08:34:36.698Z,1456.00
2023-04-27T08:35:36.770Z,1486.00
2023-04-27T08:36:35.783Z,1515.00
2023-04-27T08:37:36.828Z,1531.00
2023-04-27T08:38:36.880Z,1550.00
2023-04-27T08:39:36.907Z,1620.00
2023-04-27T08:40:36.947Z,1649.00
2023-04-27T08:41:36.954Z,1646.00
2023-04-27T08:42:36.013Z,1705.00
2023-04-27T08:43:37.355Z,1762.00
2023-04-27T08:44:37.099Z,1773.00
2023-04-27T08:45:36.139Z,1769.00
2023-04-27T08:46:37.193Z,1778.00
2023-04-27T08:47:43.442Z,1796.00
2023-04-27T08:48:37.258Z,1847.00
2023-04-27T08:49:37.244Z,1867.00
2023-04-27T08:50:37.185Z,1883.00
2023-04-27T08:51:37.172Z,1949.00
2023-04-27T08:52:37.198Z,1961.00
2023-04-27T08:53:36.169Z,1989.00
2023-04-27T08:54:37.168Z,2041.00
2023-04-27T08:55:37.222Z,2077.00
2023-04-27T08:56:36.149Z,2070.00
2023-04-27T08:57:37.147Z,2084.00
2023-04-27T08:58:37.122Z,2166.00
2023-04-27T08:59:37.153Z,2226.00
2023-04-27T09:00:36.117Z,2260.00
2023-04-27T09:01:37.160Z,2277.00
2023-04-27T09:02:37.246Z,2288.00
2023-04-27T09:03:37.319Z,2305.00
2023-04-27T09:04:36.383Z,2334.00
2023-04-27T09:05:37.319Z,2352.00
2023-04-27T09:06:36.450Z,2359.00
2023-04-27T09:07:37.355Z,2373.00
2023-04-27T09:08:37.407Z,2402.00
2023-04-27T09:09:37.424Z,2409.00
2023-04-27T09:10:37.456Z,2420.00
2023-04-27T09:11:36.509Z,2422.00
2023-04-27T09:12:37.530Z,2440.00
2023-04-27T09:13:37.579Z,2485.00
2023-04-27T09:14:36.639Z,2507.00
2023-04-27T09:15:37.641Z,2513.00
2023-04-27T09:16:37.719Z,2521.00
2023-04-27T09:17:37.741Z,2531.00
2023-04-27T09:18:36.724Z,2553.00
2023-04-27T09:19:37.871Z,2583.00
2023-04-27T09:20:37.781Z,2627.00
2023-04-27T09:21:37.786Z,2654.00
2023-04-27T09:22:37.804Z,2637.00
2023-04-27T09:23:37.834Z,2708.00
2023-04-27T09:24:36.897Z,2713.00
2023-04-27T09:25:37.915Z,2726.00
2023-04-27T09:26:36.970Z,2730.00
2023-04-27T09:27:37.010Z,2761.00
2023-04-27T09:28:38.076Z,2775.00
2023-04-27T09:29:38.137Z,2786.00
2023-04-27T09:30:38.172Z,2810.00
2023-04-27T09:31:38.237Z,2834.00
2023-04-27T09:32:37.231Z,2850.00
2023-04-27T09:33:38.244Z,2856.00
2023-04-27T09:34:38.281Z,2881.00
2023-04-27T09:35:37.333Z,2890.00
2023-04-27T09:36:38.344Z,2930.00
2023-04-27T09:37:38.378Z,2939.00
2023-04-27T09:38:37.458Z,2950.00
2023-04-27T09:39:38.481Z,2961.00
2023-04-27T09:40:38.502Z,2982.00
2023-04-27T09:41:38.487Z,3019.00
2023-04-27T09:42:37.497Z,3084.00
2023-04-27T09:43:38.485Z,3092.00
2023-04-27T09:44:38.575Z,3108.00
2023-04-27T09:45:37.611Z,3137.00
2023-04-27T09:46:37.561Z,3160.00
2023-04-27T09:47:38.653Z,3253.00
2023-04-27T09:48:38.666Z,3169.00
2023-04-27T09:49:38.840Z,3153.00
2023-04-27T09:50:38.628Z,3122.00
2023-04-27T09:51:38.695Z,3129.00
2023-04-27T09:52:38.736Z,3131.00
2023-04-27T09:53:38.811Z,3121.00
2023-04-27T09:54:37.891Z,3117.00
2023-04-27T09:55:37.873Z,3106.00
2023-04-27T09:56:38.887Z,3101.00
2023-04-27T09:57:38.898Z,3097.00
2023-04-27T09:58:38.916Z,3091.00
2023-04-27T09:59:37.925Z,3086.00
2023-04-27T10:00:38.927Z,3081.00
2023-04-27T10:01:39.045Z,3076.00
2023-04-27T10:02:52.207Z,3070.00
2023-04-27T10:03:39.083Z,3061.00
2023-04-27T10:04:39.147Z,3057.00
2023-04-27T10:05:37.971Z,3052.00
2023-04-27T10:06:38.954Z,3050.00
2023-04-27T10:07:38.967Z,3046.00
2023-04-27T10:08:38.955Z,3044.00
2023-04-27T10:09:38.925Z,3040.00
2023-04-27T10:10:37.926Z,3039.00
2023-04-27T10:11:37.926Z,3036.00
2023-04-27T10:12:38.907Z,3033.00
2023-04-27T10:13:38.892Z,3025.00
2023-04-27T10:14:37.889Z,3018.00
2023-04-27T10:15:38.916Z,3018.00
2023-04-27T10:16:37.954Z,3017.00
2023-04-27T10:17:38.979Z,3012.00
2023-04-27T10:18:38.991Z,3004.00
2023-04-27T10:19:39.026Z,3000.00
2023-04-27T10:20:39.071Z,2995.00
2023-04-27T10:21:39.117Z,2993.00
2023-04-27T10:22:39.420Z,2991.00
2023-04-27T10:23:38.213Z,2990.00
2023-04-27T10:24:39.242Z,2988.00
2023-04-27T10:25:39.283Z,2984.00
2023-04-27T10:26:39.990Z,2984.00
2023-04-27T10:27:39.354Z,2986.00
2023-04-27T10:28:39.400Z,2981.00
2023-04-27T10:29:39.438Z,2978.00
2023-04-27T10:30:39.688Z,2971.00
2023-04-27T10:31:39.505Z,2969.00
2023-04-27T10:32:38.635Z,2967.00
2023-04-27T10:33:38.605Z,2961.00
2023-04-27T10:34:39.624Z,2960.00
2023-04-27T10:35:38.665Z,2964.00
2023-04-27T10:36:39.717Z,2961.00
2023-04-27T10:37:39.736Z,2961.00
2023-04-27T10:38:39.805Z,2964.00
2023-04-27T10:39:47.025Z,2971.00
2023-04-27T10:40:39.823Z,2972.00
2023-04-27T10:41:38.804Z,2976.00
2023-04-27T10:42:39.792Z,2986.00
2023-04-27T10:43:38.784Z,2988.00
2023-04-27T10:44:39.818Z,2988.00
2023-04-27T10:45:39.783Z,2986.00
2023-04-27T10:46:39.817Z,2985.00
2023-04-27T10:47:38.859Z,2988.00
2023-04-27T10:48:38.750Z,2989.00
2023-04-27T10:49:38.744Z,2989.00
2023-04-27T10:50:38.745Z,2987.00
2023-04-27T10:51:39.743Z,2984.00
2023-04-27T10:52:38.747Z,2989.00
2023-04-27T10:53:38.735Z,2991.00
2023-04-27T10:54:39.736Z,2988.00
2023-04-27T10:55:38.707Z,2987.00
2023-04-27T10:56:39.688Z,2981.00
2023-04-27T10:57:39.688Z,2978.00
2023-04-27T10:59:38.704Z,2974.00
2023-04-27T11:00:38.671Z,2977.00
2023-04-27T11:01:39.705Z,2975.00
2023-04-27T11:02:38.695Z,2968.00
2023-04-27T11:03:39.941Z,2969.00
2023-04-27T11:04:39.703Z,2964.00
2023-04-27T11:05:39.651Z,2961.00
2023-04-27T11:06:39.650Z,2962.00
2023-04-27T11:07:39.644Z,2966.00
2023-04-27T11:08:38.605Z,2966.00
2023-04-27T11:09:39.640Z,2970.00
2023-04-27T11:10:38.612Z,2977.00
2023-04-27T11:11:39.644Z,2976.00
2023-04-27T11:12:39.570Z,2975.00
2023-04-27T11:13:38.605Z,2971.00
2023-04-27T11:14:38.558Z,2966.00
2023-04-27T11:15:39.582Z,2964.00
2023-04-27T11:16:39.636Z,2962.00
2023-04-27T11:17:39.571Z,2959.00
2023-04-27T11:18:38.561Z,2964.00
2023-04-27T11:19:38.550Z,2963.00
2023-04-27T11:20:38.610Z,2971.00
2023-04-27T11:21:39.647Z,2983.00
2023-04-27T11:22:38.693Z,2998.00
2023-04-27T11:23:38.786Z,2999.00
2023-04-27T11:24:40.098Z,3000.00
2023-04-27T11:25:38.867Z,2997.00
2023-04-27T11:26:39.959Z,2992.00
2023-04-27T11:27:40.004Z,2989.00
2023-04-27T11:28:39.079Z,2990.00
2023-04-27T11:29:40.100Z,2988.00
2023-04-27T11:30:39.161Z,2989.00
2023-04-27T11:31:39.242Z,2991.00
2023-04-27T11:32:39.299Z,2994.00
2023-04-27T11:33:40.325Z,2995.00
2023-04-27T11:34:40.386Z,3003.00
2023-04-27T11:35:39.465Z,3007.00
2023-04-27T11:36:40.522Z,3011.00
2023-04-27T11:37:40.564Z,3022.00
2023-04-27T11:38:39.689Z,3025.00
2023-04-27T11:39:39.701Z,3028.00
2023-04-27T11:40:39.755Z,3026.00
2023-04-27T11:41:40.813Z,3024.00
2023-04-27T11:42:40.936Z,3021.00
2023-04-27T11:43:40.956Z,3020.00
2023-04-27T11:44:40.998Z,3019.00
2023-04-27T11:45:40.074Z,3021.00
2023-04-27T11:46:41.177Z,3020.00
2023-04-27T11:47:41.203Z,3016.00
2023-04-27T11:48:41.238Z,3017.00
2023-04-27T11:49:40.296Z,3016.00
2023-04-27T11:50:41.362Z,3019.00
2023-04-27T11:51:41.429Z,3014.00
2023-04-27T11:52:40.490Z,3018.00
2023-04-27T11:53:40.618Z,3021.00
2023-04-27T11:54:41.601Z,3025.00
2023-04-27T11:55:41.686Z,3023.00
2023-04-27T11:56:41.734Z,3025.00
2023-04-27T11:57:41.811Z,3021.00
2023-04-27T11:58:40.885Z,3017.00
2023-04-27T11:59:40.916Z,3014.00
2023-04-27T12:00:41.970Z,3018.00
2023-04-27T12:01:42.044Z,3018.00
2023-04-27T12:02:41.390Z,3015.00
2023-04-27T12:03:41.262Z,3014.00
2023-04-27T12:04:41.374Z,3015.00
2023-04-27T12:05:42.223Z,3013.00
2023-04-27T12:06:42.241Z,3009.00
2023-04-27T12:07:42.278Z,3009.00
2023-04-27T12:08:42.301Z,3007.00
2023-04-27T12:09:41.342Z,3007.00
2023-04-27T12:10:42.426Z,3010.00
2023-04-27T12:11:41.423Z,3010.00
2023-04-27T12:12:41.487Z,3002.00
2023-04-27T12:13:42.524Z,3002.00
2023-04-27T12:14:42.571Z,2998.00
2023-04-27T12:15:41.588Z,2993.00
2023-04-27T12:16:41.648Z,2995.00
2023-04-27T12:17:41.704Z,2998.00
2023-04-27T12:18:42.728Z,3002.00
2023-04-27T12:19:42.739Z,3004.00
2023-04-27T12:20:41.788Z,3003.00
2023-04-27T12:21:42.849Z,3002.00
2023-04-27T12:22:42.915Z,2995.00
2023-04-27T12:23:42.974Z,2991.00
2023-04-27T12:24:42.962Z,2989.00
2023-04-27T12:25:42.003Z,2989.00
2023-04-27T12:26:43.061Z,2989.00
2023-04-27T12:27:43.101Z,2989.00
2023-04-27T12:28:43.133Z,2689.00
2023-04-27T12:29:42.159Z,2222.00
2023-04-27T12:30:42.220Z,2014.00
2023-04-27T12:31:43.273Z,1833.00
2023-04-27T12:32:42.301Z,1712.00
2023-04-27T12:33:43.321Z,1684.00
2023-04-27T12:34:42.364Z,1486.00
2023-04-27T12:35:43.865Z,1356.00
2023-04-27T12:36:43.372Z,1329.00
2023-04-27T12:37:43.406Z,1163.00
2023-04-27T12:38:42.444Z,1088.00
2023-04-27T12:39:42.506Z,1010.00
2023-04-27T12:40:43.572Z,968.00
2023-04-27T12:41:42.628Z,917.00
2023-04-27T12:42:43.683Z,832.00
2023-04-27T12:43:42.690Z,803.00
2023-04-27T12:44:43.696Z,774.00
2023-04-27T12:45:43.734Z,750.00
2023-04-27T12:46:43.813Z,719.00
2023-04-27T12:47:58.676Z,706.00
2023-04-27T12:48:43.841Z,697.00
2023-04-27T12:49:42.773Z,692.00
2023-04-27T12:50:43.769Z,696.00
2023-04-27T12:51:42.760Z,696.00
2023-04-27T12:52:43.757Z,698.00
2023-04-27T12:53:43.759Z,703.00
2023-04-27T12:54:43.755Z,707.00
2023-04-27T12:55:42.750Z,709.00
2023-04-27T12:56:43.733Z,712.00
2023-04-27T12:57:43.719Z,713.00
2023-04-27T12:58:42.704Z,717.00
2023-04-27T12:59:42.713Z,722.00
2023-04-27T13:00:43.692Z,727.00
2023-04-27T13:01:43.734Z,730.00
2023-04-27T13:02:42.863Z,729.00
2023-04-27T13:03:43.938Z,729.00
2023-04-27T13:04:43.927Z,726.00
2023-04-27T13:05:43.899Z,721.00
2023-04-27T13:06:43.944Z,716.00
2023-04-27T13:07:42.998Z,716.00
2023-04-27T13:08:44.000Z,716.00
2023-04-27T13:09:44.056Z,716.00
2023-04-27T13:10:43.074Z,718.00
2023-04-27T13:11:44.088Z,719.00
2023-04-27T13:12:43.131Z,722.00
2023-04-27T13:13:44.162Z,724.00
2023-04-27T13:14:44.190Z,723.00
2023-04-27T13:15:43.331Z,720.00
2023-04-27T13:16:44.245Z,719.00
2023-04-27T13:17:44.021Z,723.00
2023-04-27T13:18:43.305Z,728.00
2023-04-27T13:19:44.307Z,732.00
2023-04-27T13:20:43.332Z,738.00
2023-04-27T13:21:43.346Z,738.00
2023-04-27T13:22:44.356Z,738.00
2023-04-27T13:23:43.398Z,737.00
2023-04-27T13:24:43.404Z,737.00
2023-04-27T13:25:44.428Z,740.00
2023-04-27T13:26:44.653Z,741.00
2023-04-27T13:27:43.426Z,741.00
2023-04-27T13:28:44.450Z,743.00
2023-04-27T13:29:44.470Z,745.00
2023-04-27T13:30:43.492Z,744.00
2023-04-27T13:31:43.523Z,744.00
2023-04-27T13:32:44.523Z,742.00
2023-04-27T13:33:43.478Z,742.00
2023-04-27T13:34:44.522Z,742.00
2023-04-27T13:35:44.492Z,742.00
2023-04-27T13:36:44.524Z,743.00
2023-04-27T13:37:44.538Z,740.00
2023-04-27T13:38:44.524Z,738.00
2023-04-27T13:39:44.528Z,740.00
2023-04-27T13:40:44.538Z,739.00
2023-04-27T13:41:43.548Z,740.00
2023-04-27T13:42:43.558Z,743.00
2023-04-27T13:43:43.596Z,742.00
2023-04-27T13:44:43.569Z,747.00
2023-04-27T13:45:43.579Z,749.00
2023-04-27T13:46:43.651Z,751.00
2023-04-27T13:47:44.616Z,754.00
2023-04-27T13:48:44.586Z,756.00
2023-04-27T13:49:44.605Z,755.00
2023-04-27T13:50:44.638Z,753.00
2023-04-27T13:51:43.622Z,754.00
2023-04-27T13:52:44.622Z,753.00
2023-04-27T13:53:44.676Z,752.00
2023-04-27T13:54:43.632Z,754.00
2023-04-27T13:55:44.640Z,753.00
2023-04-27T13:56:43.649Z,751.00
2023-04-27T13:57:43.651Z,750.00
2023-04-27T13:58:43.692Z,752.00
2023-04-27T13:59:43.648Z,750.00
2023-04-27T14:00:44.701Z,749.00
2023-04-27T14:01:43.803Z,750.00
2023-04-27T14:02:44.760Z,751.00
2023-04-27T14:03:44.071Z,751.00
2023-04-27T14:04:44.718Z,750.00
2023-04-27T14:05:43.671Z,749.00
2023-04-27T14:06:44.709Z,748.00
2023-04-27T14:07:44.680Z,749.00
2023-04-27T14:08:43.695Z,752.00
2023-04-27T14:09:44.690Z,753.00
2023-04-27T14:10:43.685Z,752.00
2023-04-27T14:11:55.766Z,753.00
2023-04-27T14:12:44.669Z,750.00
2023-04-27T14:13:44.684Z,751.00
2023-04-27T14:14:43.669Z,750.00
2023-04-27T14:15:43.649Z,750.00
2023-04-27T14:16:44.713Z,753.00
2023-04-27T14:17:43.675Z,751.00
2023-04-27T14:18:44.649Z,752.00
2023-04-27T14:19:43.628Z,756.00
2023-04-27T14:20:43.640Z,756.00
2023-04-27T14:21:43.619Z,757.00
2023-04-27T14:22:44.636Z,758.00
2023-04-27T14:23:43.598Z,761.00
2023-04-27T14:24:44.596Z,763.00
2023-04-27T14:25:43.576Z,761.00
2023-04-27T14:26:44.578Z,759.00
2023-04-27T14:27:44.582Z,760.00
2023-04-27T14:28:44.558Z,763.00
2023-04-27T14:29:44.558Z,765.00
2023-04-27T14:30:44.549Z,764.00
2023-04-27T14:31:44.563Z,764.00
2023-04-27T14:32:43.586Z,766.00
2023-04-27T14:33:43.524Z,767.00
2023-04-27T14:34:44.517Z,767.00
2023-04-27T14:35:44.514Z,764.00
2023-04-27T14:36:44.517Z,769.00
2023-04-27T14:37:44.514Z,766.00
2023-04-27T14:38:43.516Z,769.00
2023-04-27T14:39:45.268Z,769.00
2023-04-27T14:40:43.484Z,770.00
2023-04-27T14:41:44.476Z,770.00
2023-04-27T14:42:43.476Z,769.00
2023-04-27T14:43:43.454Z,765.00
2023-04-27T14:44:43.452Z,761.00
2023-04-27T14:45:51.529Z,760.00
2023-04-27T14:46:44.477Z,759.00
2023-04-27T14:47:44.462Z,757.00
2023-04-27T14:48:44.422Z,757.00
2023-04-27T14:49:44.428Z,758.00
2023-04-27T14:50:43.425Z,761.00
2023-04-27T14:51:43.758Z,761.00
2023-04-27T14:52:43.394Z,763.00
2023-04-27T14:53:43.389Z,766.00
2023-04-27T14:54:44.420Z,769.00
2023-04-27T14:55:44.380Z,770.00
2023-04-27T14:56:43.388Z,767.00
2023-04-27T14:57:43.359Z,766.00
2023-04-27T14:58:44.367Z,766.00
2023-04-27T14:59:44.362Z,765.00
2023-04-27T15:00:43.344Z,765.00
2023-04-27T15:01:44.359Z,762.00
2023-04-27T15:02:44.406Z,761.00
2023-04-27T15:03:44.523Z,764.00
2023-04-27T15:04:44.457Z,764.00
2023-04-27T15:05:43.308Z,765.00
2023-04-27T15:06:43.302Z,764.00
2023-04-27T15:07:44.308Z,762.00
2023-04-27T15:08:44.277Z,761.00
2023-04-27T15:09:43.275Z,761.00
2023-04-27T15:10:44.285Z,763.00
2023-04-27T15:11:43.256Z,763.00
2023-04-27T15:12:43.255Z,761.00
2023-04-27T15:13:43.233Z,763.00
2023-04-27T15:14:43.226Z,764.00
2023-04-27T15:15:43.307Z,766.00
2023-04-27T15:16:43.311Z,769.00
2023-04-27T15:17:44.216Z,769.00
2023-04-27T15:18:43.206Z,770.00
2023-04-27T15:19:44.187Z,768.00
2023-04-27T15:20:44.714Z,765.00
2023-04-27T15:21:43.185Z,765.00
2023-04-27T15:22:43.167Z,766.00
2023-04-27T15:23:44.227Z,763.00
2023-04-27T15:24:44.170Z,762.00
2023-04-27T15:25:43.165Z,764.00
2023-04-27T15:26:44.180Z,765.00
2023-04-27T15:27:43.144Z,764.00
2023-04-27T15:28:43.163Z,763.00
2023-04-27T15:29:43.134Z,763.00
